createdAt,value
2019-02-10T00:00:22.539Z,97.30
2019-02-10T00:02:52.329Z,96.60
2019-02-10T00:05:23.983Z,96.80
2019-02-10T00:07:55.656Z,96.80
2019-02-10T00:10:25.379Z,97.60
2019-02-10T00:13:26.013Z,97.60
2019-02-10T00:15:55.797Z,98.70
2019-02-10T00:18:25.603Z,99.60
2019-02-10T00:20:56.483Z,99.90
2019-02-10T00:23:26.406Z,99.90
2019-02-10T00:25:56.317Z,99.90
2019-02-10T00:28:26.090Z,99.90
2019-02-10T00:30:55.789Z,99.90
2019-02-10T00:33:25.538Z,99.90
2019-02-10T00:35:55.231Z,99.90
2019-02-10T00:38:25.004Z,99.90
2019-02-10T00:40:56.408Z,99.90
2019-02-10T00:43:26.214Z,99.90
2019-02-10T00:45:57.586Z,99.90
2019-02-10T00:48:27.403Z,99.90
2019-02-10T00:50:57.243Z,99.90
2019-02-10T00:53:29.374Z,99.90
2019-02-10T00:55:59.136Z,99.90
2019-02-10T00:58:28.900Z,99.90
2019-02-10T01:00:58.603Z,99.90
2019-02-10T01:03:28.382Z,99.90
2019-02-10T01:06:00.323Z,99.90
2019-02-10T01:08:30.078Z,99.90
2019-02-10T01:10:59.793Z,99.90
2019-02-10T01:13:29.571Z,99.90
2019-02-10T01:16:01.726Z,99.90
2019-02-10T01:18:31.487Z,99.90
2019-02-10T01:21:01.220Z,99.90
2019-02-10T01:23:31.016Z,99.90
2019-02-10T01:26:00.696Z,99.90
2019-02-10T01:28:30.622Z,99.90
2019-02-10T01:31:00.428Z,99.90
2019-02-10T01:33:30.147Z,99.90
2019-02-10T01:35:59.910Z,99.90
2019-02-10T01:38:29.630Z,99.90
2019-02-10T01:40:59.358Z,99.90
2019-02-10T01:43:29.102Z,99.90
2019-02-10T01:45:58.968Z,99.90
2019-02-10T01:48:28.796Z,99.90
2019-02-10T01:50:58.555Z,99.90
2019-02-10T01:53:28.259Z,99.90
2019-02-10T01:55:57.960Z,99.90
2019-02-10T01:58:27.703Z,99.90
2019-02-10T02:00:57.416Z,99.90
2019-02-10T02:03:27.299Z,99.90
2019-02-10T02:05:57.006Z,99.90
2019-02-10T02:08:26.780Z,99.90
2019-02-10T02:10:56.538Z,99.90
2019-02-10T02:13:26.435Z,99.90
2019-02-10T02:15:56.142Z,99.90
2019-02-10T02:18:25.875Z,99.90
2019-02-10T02:20:55.712Z,99.90
2019-02-10T02:23:25.500Z,99.90
2019-02-10T02:25:55.190Z,99.90
2019-02-10T02:28:24.986Z,99.90
2019-02-10T02:30:54.837Z,99.90
2019-02-10T02:33:24.602Z,99.90
2019-02-10T02:35:54.327Z,99.90
2019-02-10T02:38:24.046Z,99.90
2019-02-10T02:40:53.776Z,99.90
2019-02-10T02:43:23.555Z,99.90
2019-02-10T02:45:53.260Z,99.90
2019-02-10T02:48:23.032Z,99.90
2019-02-10T02:50:52.767Z,99.90
2019-02-10T02:53:22.511Z,99.90
2019-02-10T02:55:52.224Z,99.90
2019-02-10T02:58:21.936Z,99.90
2019-02-10T03:00:51.701Z,99.90
2019-02-10T03:03:21.458Z,99.90
2019-02-10T03:05:51.192Z,99.90
2019-02-10T03:08:21.084Z,99.90
2019-02-10T03:10:50.882Z,99.90
2019-02-10T03:13:20.641Z,99.90
2019-02-10T03:15:50.411Z,99.90
2019-02-10T03:18:22.194Z,99.90
2019-02-10T03:20:52.075Z,99.90
2019-02-10T03:23:21.883Z,99.90
2019-02-10T03:25:51.605Z,99.90
2019-02-10T03:28:21.284Z,99.90
2019-02-10T03:30:51.034Z,99.90
2019-02-10T03:33:20.753Z,99.90
2019-02-10T03:35:50.675Z,99.90
2019-02-10T03:38:20.339Z,99.90
2019-02-10T03:40:50.391Z,99.90
2019-02-10T03:43:20.173Z,99.90
2019-02-10T03:45:49.916Z,99.90
2019-02-10T03:48:19.663Z,99.90
2019-02-10T03:50:49.403Z,99.90
2019-02-10T03:53:19.236Z,99.90
2019-02-10T03:55:49.031Z,99.90
2019-02-10T03:58:18.759Z,99.90
2019-02-10T04:00:48.444Z,99.90
2019-02-10T04:03:18.255Z,99.90
2019-02-10T04:05:49.155Z,99.90
2019-02-10T04:08:18.861Z,99.90
2019-02-10T04:10:48.571Z,99.90
2019-02-10T04:13:18.372Z,99.90
2019-02-10T04:15:48.152Z,99.90
2019-02-10T04:18:17.861Z,99.90
2019-02-10T04:20:47.619Z,99.90
2019-02-10T04:23:17.296Z,99.90
2019-02-10T04:25:47.078Z,99.90
2019-02-10T04:28:16.812Z,99.90
2019-02-10T04:30:46.609Z,99.90
2019-02-10T04:33:16.344Z,99.90
2019-02-10T04:35:46.146Z,99.90
2019-02-10T04:38:15.871Z,99.90
2019-02-10T04:40:47.656Z,99.90
2019-02-10T04:43:17.335Z,99.90
2019-02-10T04:45:50.117Z,99.90
2019-02-10T04:48:19.811Z,99.90
2019-02-10T04:50:49.548Z,99.90
2019-02-10T04:53:19.302Z,99.90
2019-02-10T04:56:11.921Z,99.90
2019-02-10T04:58:41.743Z,99.90
2019-02-10T05:01:11.477Z,99.90
2019-02-10T05:03:41.167Z,99.90
2019-02-10T05:06:10.903Z,99.90
2019-02-10T05:08:40.601Z,99.90
2019-02-10T05:11:10.324Z,99.90
2019-02-10T05:13:40.066Z,99.90
2019-02-10T05:16:09.895Z,99.90
2019-02-10T05:18:39.588Z,99.90
2019-02-10T05:21:09.288Z,99.90
2019-02-10T05:23:39.039Z,99.90
2019-02-10T05:26:08.719Z,99.90
2019-02-10T05:28:38.551Z,99.90
2019-02-10T05:31:08.534Z,99.90
2019-02-10T05:33:38.317Z,99.90
2019-02-10T05:36:08.007Z,99.90
2019-02-10T05:38:37.745Z,99.90
2019-02-10T05:41:07.517Z,99.90
2019-02-10T05:43:37.293Z,99.90
2019-02-10T05:46:07.027Z,99.90
2019-02-10T05:48:36.716Z,99.90
2019-02-10T05:51:06.446Z,99.90
2019-02-10T05:53:36.156Z,99.90
2019-02-10T05:56:05.834Z,99.90
2019-02-10T05:58:35.670Z,99.90
2019-02-10T06:01:40.532Z,99.90
2019-02-10T06:04:10.266Z,99.90
2019-02-10T06:06:40.002Z,99.90
2019-02-10T06:09:09.717Z,99.90
2019-02-10T06:11:39.449Z,99.90
2019-02-10T06:14:11.625Z,99.90
2019-02-10T06:16:41.364Z,99.90
2019-02-10T06:19:11.239Z,99.90
2019-02-10T06:21:41.080Z,99.90
2019-02-10T06:24:10.778Z,99.90
2019-02-10T06:26:40.454Z,99.90
2019-02-10T06:29:10.187Z,99.90
2019-02-10T06:31:40.015Z,99.90
2019-02-10T06:34:09.790Z,99.90
2019-02-10T06:36:39.526Z,99.90
2019-02-10T06:39:09.304Z,99.90
2019-02-10T06:41:39.012Z,99.90
2019-02-10T06:44:08.689Z,99.90
2019-02-10T06:46:38.426Z,99.90
2019-02-10T06:49:08.135Z,99.90
2019-02-10T06:51:37.887Z,99.90
2019-02-10T06:54:07.704Z,99.90
2019-02-10T06:56:37.566Z,99.90
2019-02-10T06:59:10.229Z,99.90
2019-02-10T07:01:50.485Z,99.90
2019-02-10T07:04:23.651Z,99.90
2019-02-10T07:06:53.487Z,99.90
2019-02-10T07:09:25.231Z,99.90
2019-02-10T07:11:54.931Z,99.90
2019-02-10T07:14:38.480Z,99.90
2019-02-10T07:17:38.034Z,98.90
2019-02-10T07:20:41.382Z,96.10
2019-02-10T07:23:37.105Z,91.20
2019-02-10T07:26:15.143Z,87.80
2019-02-10T07:29:14.916Z,85.30
2019-02-10T07:31:53.616Z,81.70
2019-02-10T07:35:19.913Z,80.30
2019-02-10T07:38:15.782Z,75.10
2019-02-10T07:41:25.559Z,65.50
2019-02-10T07:44:30.785Z,64.80
2019-02-10T07:47:25.440Z,61.30
2019-02-10T07:50:36.357Z,66.70
2019-02-10T07:53:28.465Z,71.60
2019-02-10T07:56:37.530Z,68.30
2019-02-10T07:59:43.649Z,72.90
2019-02-10T08:02:38.354Z,71.60
2019-02-10T08:05:56.880Z,74.50
2019-02-10T08:09:13.120Z,76.20
2019-02-10T08:12:26.988Z,77.40
2019-02-10T08:15:07.347Z,78.10
2019-02-10T08:18:14.239Z,78.80
2019-02-10T08:21:18.947Z,79.00
2019-02-10T08:24:09.874Z,75.00
2019-02-10T08:27:03.861Z,74.80
2019-02-10T08:30:23.763Z,74.50
2019-02-10T08:33:41.976Z,77.00
2019-02-10T08:37:04.306Z,76.70
2019-02-10T08:40:03.763Z,72.50
2019-02-10T08:43:08.541Z,71.70
2019-02-10T08:46:28.414Z,73.50
2019-02-10T08:49:33.466Z,71.20
2019-02-10T08:52:32.591Z,74.20
2019-02-10T08:55:02.565Z,78.20
2019-02-10T08:57:32.380Z,83.50
2019-02-10T09:00:02.200Z,79.30
2019-02-10T09:02:31.931Z,76.40
2019-02-10T09:05:01.677Z,79.60
2019-02-10T09:07:31.390Z,76.50
2019-02-10T09:10:01.103Z,76.80
2019-02-10T09:12:30.819Z,75.60
2019-02-10T09:15:00.535Z,78.70
2019-02-10T09:17:31.631Z,75.10
2019-02-10T09:20:01.522Z,75.60
2019-02-10T09:22:31.275Z,74.70
2019-02-10T09:25:01.042Z,77.90
2019-02-10T09:27:30.981Z,73.20
2019-02-10T09:30:00.981Z,75.70
2019-02-10T09:32:30.734Z,77.10
2019-02-10T09:35:00.547Z,73.80
2019-02-10T09:37:30.495Z,72.30
2019-02-10T09:40:00.344Z,72.10
2019-02-10T09:42:30.256Z,73.70
2019-02-10T09:45:00.337Z,76.00
2019-02-10T09:47:35.830Z,70.20
2019-02-10T09:50:06.783Z,73.10
2019-02-10T09:52:36.500Z,70.70
2019-02-10T09:55:06.586Z,70.40
2019-02-10T09:57:36.322Z,70.20
2019-02-10T10:00:07.715Z,77.10
2019-02-10T10:02:37.559Z,72.00
2019-02-10T10:05:08.354Z,69.50
2019-02-10T10:07:38.276Z,70.60
2019-02-10T10:10:09.352Z,71.90
2019-02-10T10:12:39.100Z,69.10
2019-02-10T10:15:10.691Z,69.60
2019-02-10T10:17:40.485Z,67.70
2019-02-10T10:20:12.243Z,68.40
2019-02-10T10:22:41.985Z,68.60
2019-02-10T10:25:11.742Z,70.50
2019-02-10T10:27:41.499Z,67.60
2019-02-10T10:30:13.806Z,68.10
2019-02-10T10:32:43.544Z,69.10
2019-02-10T10:35:13.455Z,67.10
2019-02-10T10:37:43.222Z,66.90
2019-02-10T10:40:13.307Z,65.00
2019-02-10T10:42:43.205Z,66.90
2019-02-10T10:45:13.414Z,67.70
2019-02-10T10:47:43.276Z,64.40
2019-02-10T10:50:13.349Z,65.10
2019-02-10T10:52:43.060Z,61.10
2019-02-10T10:55:13.022Z,65.40
2019-02-10T10:57:42.757Z,63.60
2019-02-10T11:00:12.933Z,61.70
2019-02-10T11:02:42.719Z,63.50
2019-02-10T11:05:12.754Z,63.60
2019-02-10T11:07:42.515Z,63.00
2019-02-10T11:10:12.707Z,63.60
2019-02-10T11:12:42.970Z,59.10
2019-02-10T11:15:13.062Z,58.40
2019-02-10T11:17:42.770Z,58.30
2019-02-10T11:20:12.643Z,61.10
2019-02-10T11:22:42.337Z,63.00
2019-02-10T11:25:12.131Z,59.90
2019-02-10T11:27:41.824Z,62.40
2019-02-10T11:30:11.963Z,65.30
2019-02-10T11:32:42.257Z,62.10
2019-02-10T11:35:12.432Z,63.20
2019-02-10T11:37:42.281Z,62.70
2019-02-10T11:40:12.003Z,59.30
2019-02-10T11:42:44.081Z,66.30
2019-02-10T11:45:13.371Z,57.20
2019-02-10T11:47:43.246Z,58.90
2019-02-10T11:50:13.093Z,60.10
2019-02-10T11:52:42.876Z,62.90
2019-02-10T11:55:12.839Z,61.80
2019-02-10T11:57:42.620Z,63.00
2019-02-10T12:00:13.279Z,57.40
2019-02-10T12:02:43.155Z,61.20
2019-02-10T12:05:12.895Z,59.20
2019-02-10T12:07:42.602Z,57.70
2019-02-10T12:10:12.492Z,58.70
2019-02-10T12:12:42.203Z,58.60
2019-02-10T12:15:12.147Z,60.30
2019-02-10T12:17:41.910Z,63.20
2019-02-10T12:20:11.839Z,60.80
2019-02-10T12:22:49.683Z,64.20
2019-02-10T12:25:16.178Z,62.60
2019-02-10T12:27:46.035Z,67.80
2019-02-10T12:30:15.921Z,63.10
2019-02-10T12:32:45.628Z,63.80
2019-02-10T12:35:15.423Z,66.50
2019-02-10T12:37:45.172Z,63.20
2019-02-10T12:40:14.882Z,59.90
2019-02-10T12:42:44.617Z,59.70
2019-02-10T12:45:14.817Z,57.30
2019-02-10T12:47:44.579Z,57.30
2019-02-10T12:50:14.325Z,56.80
2019-02-10T12:52:44.217Z,57.20
2019-02-10T12:55:14.724Z,56.40
2019-02-10T12:57:44.482Z,55.80
2019-02-10T13:00:15.662Z,58.70
2019-02-10T13:02:45.722Z,56.80
2019-02-10T13:05:16.540Z,55.80
2019-02-10T13:07:47.417Z,56.40
2019-02-10T13:10:18.328Z,56.80
2019-02-10T13:12:48.311Z,58.60
2019-02-10T13:15:18.052Z,58.80
2019-02-10T13:17:47.939Z,57.80
2019-02-10T13:20:17.834Z,59.50
2019-02-10T13:22:47.592Z,59.70
2019-02-10T13:25:17.506Z,58.20
2019-02-10T13:27:47.354Z,58.70
2019-02-10T13:30:17.129Z,58.90
2019-02-10T13:32:47.391Z,60.70
2019-02-10T13:35:18.589Z,56.50
2019-02-10T13:37:49.372Z,58.50
2019-02-10T13:40:19.133Z,60.00
2019-02-10T13:42:49.028Z,60.20
2019-02-10T13:45:18.755Z,58.30
2019-02-10T13:47:48.628Z,60.40
2019-02-10T13:50:18.354Z,62.10
2019-02-10T13:52:48.154Z,61.10
2019-02-10T13:55:18.146Z,62.70
2019-02-10T13:57:47.915Z,60.80
2019-02-10T14:00:19.055Z,66.30
2019-02-10T14:02:48.822Z,62.90
2019-02-10T14:05:18.568Z,63.70
2019-02-10T14:07:48.383Z,65.20
2019-02-10T14:10:25.364Z,64.70
2019-02-10T14:12:50.406Z,69.40
2019-02-10T14:15:20.124Z,65.40
2019-02-10T14:17:49.935Z,68.10
2019-02-10T14:20:19.704Z,67.90
2019-02-10T14:22:49.480Z,66.10
2019-02-10T14:25:19.257Z,66.30
2019-02-10T14:27:49.189Z,67.00
2019-02-10T14:30:20.630Z,68.70
2019-02-10T14:32:50.440Z,65.00
2019-02-10T14:35:20.344Z,69.70
2019-02-10T14:37:50.124Z,67.00
2019-02-10T14:40:21.159Z,68.10
2019-02-10T14:42:50.921Z,66.10
2019-02-10T14:45:20.624Z,65.70
2019-02-10T14:47:50.394Z,66.40
2019-02-10T14:50:20.144Z,65.60
2019-02-10T14:52:49.923Z,69.30
2019-02-10T14:55:19.703Z,67.90
2019-02-10T14:57:50.089Z,69.20
2019-02-10T15:00:19.815Z,68.90
2019-02-10T15:02:51.538Z,69.60
2019-02-10T15:05:21.283Z,68.90
2019-02-10T15:07:52.016Z,71.60
2019-02-10T15:10:21.839Z,72.40
2019-02-10T15:12:52.165Z,71.30
2019-02-10T15:15:22.022Z,71.70
2019-02-10T15:17:53.235Z,72.70
2019-02-10T15:20:23.127Z,72.20
2019-02-10T15:22:52.976Z,73.50
2019-02-10T15:25:22.879Z,78.80
2019-02-10T15:27:55.835Z,79.60
2019-02-10T15:30:25.661Z,76.40
2019-02-10T15:32:55.625Z,76.60
2019-02-10T15:35:26.159Z,76.00
2019-02-10T15:37:56.212Z,74.50
2019-02-10T15:40:26.210Z,77.20
2019-02-10T15:42:59.774Z,75.80
2019-02-10T15:45:29.528Z,76.40
2019-02-10T15:47:59.619Z,76.20
2019-02-10T15:50:29.500Z,77.90
2019-02-10T15:52:59.278Z,78.40
2019-02-10T15:55:29.216Z,75.90
2019-02-10T15:57:59.140Z,81.50
2019-02-10T16:00:28.901Z,75.70
2019-02-10T16:02:58.805Z,75.90
2019-02-10T16:05:28.730Z,74.60
2019-02-10T16:07:58.883Z,72.80
2019-02-10T16:10:28.960Z,77.10
2019-02-10T16:12:59.277Z,72.20
2019-02-10T16:15:29.020Z,73.00
2019-02-10T16:17:58.841Z,72.20
2019-02-10T16:20:28.525Z,71.40
2019-02-10T16:22:58.284Z,74.00
2019-02-10T16:25:28.022Z,72.10
2019-02-10T16:27:57.741Z,71.80
2019-02-10T16:30:27.474Z,75.80
2019-02-10T16:32:57.216Z,80.10
2019-02-10T16:35:27.266Z,73.20
2019-02-10T16:37:57.012Z,73.20
2019-02-10T16:40:26.745Z,72.20
2019-02-10T16:42:57.111Z,72.00
2019-02-10T16:45:30.434Z,71.10
2019-02-10T16:48:00.297Z,73.40
2019-02-10T16:50:30.620Z,74.20
2019-02-10T16:53:00.418Z,75.50
2019-02-10T16:55:31.678Z,74.90
2019-02-10T16:58:05.555Z,73.80
2019-02-10T17:00:37.923Z,72.80
2019-02-10T17:03:11.311Z,73.10
2019-02-10T17:05:41.126Z,74.70
2019-02-10T17:08:11.115Z,73.20
2019-02-10T17:10:40.937Z,73.90
2019-02-10T17:13:10.696Z,75.20
2019-02-10T17:15:40.614Z,76.70
2019-02-10T17:18:12.015Z,75.60
2019-02-10T17:20:42.108Z,75.10
2019-02-10T17:23:11.895Z,75.10
2019-02-10T17:25:41.924Z,74.20
2019-02-10T17:28:11.825Z,76.00
2019-02-10T17:30:41.636Z,77.90
2019-02-10T17:33:11.440Z,81.20
2019-02-10T17:35:42.565Z,77.70
2019-02-10T17:38:12.534Z,78.70
2019-02-10T17:40:46.591Z,77.90
2019-02-10T17:43:16.522Z,87.20
2019-02-10T17:45:46.355Z,82.80
2019-02-10T17:48:16.291Z,87.10
2019-02-10T17:50:46.146Z,84.40
2019-02-10T17:53:16.046Z,85.40
2019-02-10T17:55:46.919Z,89.30
2019-02-10T17:58:16.623Z,84.10
2019-02-10T18:00:48.721Z,82.80
2019-02-10T18:03:18.680Z,85.40
2019-02-10T18:05:51.721Z,85.00
2019-02-10T18:08:23.081Z,85.40
2019-02-10T18:10:53.050Z,83.90
2019-02-10T18:13:23.202Z,85.70
2019-02-10T18:16:18.562Z,87.80
2019-02-10T18:18:57.954Z,84.50
2019-02-10T18:21:49.463Z,88.60
2019-02-10T18:24:49.422Z,91.50
2019-02-10T18:27:55.979Z,91.50
2019-02-10T18:30:43.161Z,92.80
2019-02-10T18:33:37.788Z,91.70
2019-02-10T18:36:29.244Z,91.80
2019-02-10T18:39:12.248Z,93.60
2019-02-10T18:42:21.043Z,92.50
2019-02-10T18:45:15.641Z,94.60
2019-02-10T18:47:59.227Z,92.40
2019-02-10T18:50:48.051Z,94.70
2019-02-10T18:53:37.068Z,92.50
2019-02-10T18:56:15.119Z,94.60
2019-02-10T18:58:54.484Z,96.40
2019-02-10T19:01:44.062Z,95.80
2019-02-10T19:04:32.353Z,96.40
2019-02-10T19:07:18.602Z,94.50
2019-02-10T19:10:02.250Z,96.00
2019-02-10T19:12:45.324Z,97.00
2019-02-10T19:15:46.615Z,95.50
2019-02-10T19:18:45.790Z,95.40
2019-02-10T19:21:36.375Z,95.80
2019-02-10T19:24:40.451Z,94.70
2019-02-10T19:27:18.020Z,95.60
2019-02-10T19:30:06.880Z,95.20
2019-02-10T19:32:46.982Z,95.70
2019-02-10T19:35:37.796Z,95.80
2019-02-10T19:38:29.086Z,96.10
2019-02-10T19:41:08.727Z,96.90
2019-02-10T19:44:02.570Z,96.10
2019-02-10T19:46:54.175Z,98.40
2019-02-10T19:49:39.891Z,99.40
2019-02-10T19:52:38.465Z,98.80
2019-02-10T19:55:32.899Z,98.40
2019-02-10T19:58:33.629Z,99.90
2019-02-10T20:01:31.472Z,98.70
2019-02-10T20:04:19.035Z,98.50
2019-02-10T20:06:58.953Z,98.90
2019-02-10T20:09:45.415Z,99.00
2019-02-10T20:12:45.376Z,99.60
2019-02-10T20:15:26.592Z,99.90
2019-02-10T20:18:22.990Z,99.90
2019-02-10T20:21:12.907Z,99.00
2019-02-10T20:23:53.845Z,99.90
2019-02-10T20:26:40.152Z,99.90
2019-02-10T20:29:31.931Z,98.90
2019-02-10T20:32:20.813Z,97.60
2019-02-10T20:35:12.425Z,99.20
2019-02-10T20:38:01.148Z,97.40
2019-02-10T20:40:56.336Z,99.90
2019-02-10T20:43:38.435Z,98.90
2019-02-10T20:46:20.286Z,98.10
2019-02-10T20:49:14.052Z,98.60
2019-02-10T20:52:01.670Z,98.00
2019-02-10T20:55:05.587Z,97.70
2019-02-10T20:57:52.904Z,99.90
2019-02-10T21:00:56.469Z,98.20
2019-02-10T21:03:57.253Z,96.60
2019-02-10T21:06:45.929Z,96.20
2019-02-10T21:09:36.879Z,96.60
2019-02-10T21:12:40.640Z,95.10
2019-02-10T21:15:23.357Z,95.90
2019-02-10T21:18:30.667Z,96.70
2019-02-10T21:21:22.433Z,96.40
2019-02-10T21:24:08.234Z,96.20
2019-02-10T21:27:03.083Z,95.80
2019-02-10T21:29:51.371Z,95.80
2019-02-10T21:32:38.741Z,96.20
2019-02-10T21:35:18.216Z,97.50
2019-02-10T21:38:07.120Z,99.90
2019-02-10T21:41:15.281Z,99.40
2019-02-10T21:44:06.955Z,99.90
2019-02-10T21:46:46.240Z,99.90
2019-02-10T21:49:17.727Z,99.90
2019-02-10T21:51:47.454Z,99.90
2019-02-10T21:54:17.262Z,99.90
2019-02-10T21:56:47.074Z,99.90
2019-02-10T21:59:16.789Z,99.90
2019-02-10T22:01:46.672Z,99.90
2019-02-10T22:04:16.422Z,99.90
2019-02-10T22:06:46.215Z,99.90
2019-02-10T22:09:16.019Z,99.90
2019-02-10T22:11:46.066Z,99.90
2019-02-10T22:14:16.052Z,99.90
2019-02-10T22:16:45.912Z,99.90
2019-02-10T22:19:15.724Z,99.90
2019-02-10T22:21:45.506Z,99.90
2019-02-10T22:24:15.323Z,99.90
2019-02-10T22:26:45.220Z,99.90
2019-02-10T22:29:14.979Z,99.90
2019-02-10T22:31:44.743Z,99.90
2019-02-10T22:34:14.463Z,99.90
2019-02-10T22:36:44.403Z,99.90
2019-02-10T22:39:14.331Z,99.90
2019-02-10T22:41:44.140Z,99.90
2019-02-10T22:44:13.978Z,99.90
2019-02-10T22:46:43.927Z,99.90
2019-02-10T22:49:13.856Z,99.90
2019-02-10T22:51:44.753Z,99.40
2019-02-10T22:54:14.546Z,99.20
2019-02-10T22:56:44.345Z,98.90
2019-02-10T22:59:14.460Z,98.40
2019-02-10T23:01:44.170Z,97.70
2019-02-10T23:04:13.971Z,97.30
2019-02-10T23:06:45.059Z,96.90
2019-02-10T23:09:24.809Z,96.80
2019-02-10T23:11:54.511Z,96.80
2019-02-10T23:14:24.194Z,97.20
2019-02-10T23:16:54.088Z,96.90
2019-02-10T23:19:23.902Z,98.10
2019-02-10T23:21:53.688Z,98.50
2019-02-10T23:24:23.395Z,97.40
2019-02-10T23:26:53.423Z,97.00
2019-02-10T23:29:23.276Z,97.00
2019-02-10T23:31:53.062Z,96.50
2019-02-10T23:34:22.896Z,97.00
2019-02-10T23:36:52.666Z,96.30
2019-02-10T23:39:22.403Z,97.30
2019-02-10T23:41:52.135Z,97.20
2019-02-10T23:44:21.897Z,97.40
2019-02-10T23:46:51.636Z,97.80
2019-02-10T23:49:21.450Z,99.90
2019-02-10T23:51:51.165Z,99.90
2019-02-10T23:54:20.866Z,99.20
2019-02-10T23:56:50.599Z,99.20
2019-02-10T23:59:20.291Z,99.80
